sensor_id;sensor_type;location;lat;lon;timestamp;temperature;humidity
85509;DHT22;75919;48.506;8.946;2024-02-26T06:30:48;4.90;99.90
85509;DHT22;75919;48.506;8.946;2024-02-26T06:33:13;5.00;99.90
85509;DHT22;75919;48.506;8.946;2024-02-26T06:35:39;5.00;99.90
85509;DHT22;75919;48.506;8.946;2024-02-26T06:38:05;5.10;99.90
85509;DHT22;75919;48.506;8.946;2024-02-26T06:40:30;5.10;99.90
85509;DHT22;75919;48.506;8.946;2024-02-26T06:42:56;5.20;99.90
85509;DHT22;75919;48.506;8.946;2024-02-26T06:45:22;5.20;99.90
85509;DHT22;75919;48.506;8.946;2024-02-26T06:47:48;5.20;99.90
85509;DHT22;75919;48.506;8.946;2024-02-26T06:50:13;5.30;99.90
85509;DHT22;75919;48.506;8.946;2024-02-26T06:52:39;5.30;99.90
85509;DHT22;75919;48.506;8.946;2024-02-26T06:55:05;5.40;99.90
85509;DHT22;75919;48.506;8.946;2024-02-26T06:57:33;5.40;99.90
85509;DHT22;75919;48.506;8.946;2024-02-26T06:59:59;5.40;99.90
85509;DHT22;75919;48.506;8.946;2024-02-26T07:02:25;5.40;99.90
85509;DHT22;75919;48.506;8.946;2024-02-26T07:04:50;5.40;99.90
85509;DHT22;75919;48.506;8.946;2024-02-26T07:07:16;5.40;99.90
85509;DHT22;75919;48.506;8.946;2024-02-26T07:09:44;5.50;99.90
85509;DHT22;75919;48.506;8.946;2024-02-26T07:12:09;5.40;99.90
85509;DHT22;75919;48.506;8.946;2024-02-26T07:14:35;5.50;99.90
85509;DHT22;75919;48.506;8.946;2024-02-26T07:17:03;5.50;99.90
85509;DHT22;75919;48.506;8.946;2024-02-26T07:19:28;5.50;99.90
85509;DHT22;75919;48.506;8.946;2024-02-26T07:21:54;5.60;99.90
85509;DHT22;75919;48.506;8.946;2024-02-26T07:24:21;5.60;99.90
85509;DHT22;75919;48.506;8.946;2024-02-26T07:26:46;5.60;99.90
85509;DHT22;75919;48.506;8.946;2024-02-26T07:29:12;5.70;99.90
85509;DHT22;75919;48.506;8.946;2024-02-26T07:31:38;5.70;99.90
85509;DHT22;75919;48.506;8.946;2024-02-26T07:34:03;5.80;99.90
85509;DHT22;75919;48.506;8.946;2024-02-26T07:36:29;5.80;99.90
85509;DHT22;75919;48.506;8.946;2024-02-26T07:38:54;5.90;99.90
85509;DHT22;75919;48.506;8.946;2024-02-26T07:41:20;5.90;99.90
85509;DHT22;75919;48.506;8.946;2024-02-26T07:43:46;5.90;99.90
85509;DHT22;75919;48.506;8.946;2024-02-26T07:46:12;6.00;99.90
85509;DHT22;75919;48.506;8.946;2024-02-26T07:48:38;6.10;99.90
85509;DHT22;75919;48.506;8.946;2024-02-26T07:51:04;6.10;99.90
85509;DHT22;75919;48.506;8.946;2024-02-26T07:53:30;6.10;99.90
85509;DHT22;75919;48.506;8.946;2024-02-26T07:55:56;6.20;99.90
85509;DHT22;75919;48.506;8.946;2024-02-26T07:58:23;6.10;99.90
85509;DHT22;75919;48.506;8.946;2024-02-26T08:00:49;6.20;99.90
85509;DHT22;75919;48.506;8.946;2024-02-26T08:03:15;6.30;99.90
85509;DHT22;75919;48.506;8.946;2024-02-26T08:05:42;6.40;99.90
85509;DHT22;75919;48.506;8.946;2024-02-26T08:08:08;6.50;99.90
85509;DHT22;75919;48.506;8.946;2024-02-26T08:10:34;6.40;99.90
85509;DHT22;75919;48.506;8.946;2024-02-26T08:13:00;6.40;99.90
85509;DHT22;75919;48.506;8.946;2024-02-26T08:15:31;6.40;99.90
85509;DHT22;75919;48.506;8.946;2024-02-26T08:17:56;6.50;99.90
85509;DHT22;75919;48.506;8.946;2024-02-26T08:20:22;6.70;99.90
85509;DHT22;75919;48.506;8.946;2024-02-26T08:22:48;6.70;99.90
85509;DHT22;75919;48.506;8.946;2024-02-26T08:25:13;6.80;99.90
85509;DHT22;75919;48.506;8.946;2024-02-26T08:27:39;6.90;99.90
85509;DHT22;75919;48.506;8.946;2024-02-26T08:30:06;7.00;99.90
85509;DHT22;75919;48.506;8.946;2024-02-26T08:32:32;7.20;99.90
85509;DHT22;75919;48.506;8.946;2024-02-26T08:34:58;7.20;99.90
85509;DHT22;75919;48.506;8.946;2024-02-26T08:37:24;7.10;99.90
85509;DHT22;75919;48.506;8.946;2024-02-26T08:39:49;7.00;99.90
85509;DHT22;75919;48.506;8.946;2024-02-26T08:42:15;6.90;99.90
85509;DHT22;75919;48.506;8.946;2024-02-26T08:44:41;6.80;99.90
85509;DHT22;75919;48.506;8.946;2024-02-26T08:47:06;6.70;99.90
85509;DHT22;75919;48.506;8.946;2024-02-26T08:49:32;6.80;99.90
85509;DHT22;75919;48.506;8.946;2024-02-26T08:51:58;6.80;99.90
85509;DHT22;75919;48.506;8.946;2024-02-26T08:54:25;6.90;99.90
85509;DHT22;75919;48.506;8.946;2024-02-26T08:56:50;7.10;99.90
85509;DHT22;75919;48.506;8.946;2024-02-26T08:59:16;7.20;99.90
85509;DHT22;75919;48.506;8.946;2024-02-26T09:01:45;7.30;99.90
85509;DHT22;75919;48.506;8.946;2024-02-26T09:04:10;7.40;99.90
85509;DHT22;75919;48.506;8.946;2024-02-26T09:06:36;7.40;99.90
85509;DHT22;75919;48.506;8.946;2024-02-26T09:09:01;7.50;99.90
85509;DHT22;75919;48.506;8.946;2024-02-26T09:11:29;7.60;99.90
85509;DHT22;75919;48.506;8.946;2024-02-26T09:13:54;7.80;99.90
85509;DHT22;75919;48.506;8.946;2024-02-26T09:16:20;7.80;99.90
85509;DHT22;75919;48.506;8.946;2024-02-26T09:18:46;7.80;99.90
85509;DHT22;75919;48.506;8.946;2024-02-26T09:21:13;7.90;99.90
85509;DHT22;75919;48.506;8.946;2024-02-26T09:23:38;8.10;99.90
85509;DHT22;75919;48.506;8.946;2024-02-26T09:26:05;8.40;99.90
85509;DHT22;75919;48.506;8.946;2024-02-26T09:28:32;8.80;99.90
85509;DHT22;75919;48.506;8.946;2024-02-26T09:31:04;9.40;99.90
85509;DHT22;75919;48.506;8.946;2024-02-26T09:33:29;9.90;99.90
85509;DHT22;75919;48.506;8.946;2024-02-26T09:35:55;10.00;99.90
85509;DHT22;75919;48.506;8.946;2024-02-26T09:38:20;10.00;99.90
85509;DHT22;75919;48.506;8.946;2024-02-26T09:40:46;10.40;99.90
85509;DHT22;75919;48.506;8.946;2024-02-26T09:43:14;10.30;98.20
85509;DHT22;75919;48.506;8.946;2024-02-26T09:45:42;10.70;98.30
85509;DHT22;75919;48.506;8.946;2024-02-26T09:48:10;10.90;97.70
85509;DHT22;75919;48.506;8.946;2024-02-26T09:50:40;11.30;95.70
85509;DHT22;75919;48.506;8.946;2024-02-26T09:53:06;12.90;92.00
85509;DHT22;75919;48.506;8.946;2024-02-26T09:55:35;12.30;91.00
85509;DHT22;75919;48.506;8.946;2024-02-26T09:58:01;11.90;90.90
85509;DHT22;75919;48.506;8.946;2024-02-26T10:00:31;11.20;95.80
85509;DHT22;75919;48.506;8.946;2024-02-26T10:03:04;11.30;95.30
85509;DHT22;75919;48.506;8.946;2024-02-26T10:05:31;11.10;94.20
85509;DHT22;75919;48.506;8.946;2024-02-26T10:07:58;11.10;95.60
85509;DHT22;75919;48.506;8.946;2024-02-26T10:10:28;10.90;97.20
85509;DHT22;75919;48.506;8.946;2024-02-26T10:12:54;10.90;97.50
85509;DHT22;75919;48.506;8.946;2024-02-26T10:15:20;10.70;97.90
85509;DHT22;75919;48.506;8.946;2024-02-26T10:17:46;10.50;95.60
85509;DHT22;75919;48.506;8.946;2024-02-26T10:22:38;10.00;96.10
85509;DHT22;75919;48.506;8.946;2024-02-26T10:25:04;9.80;96.60
85509;DHT22;75919;48.506;8.946;2024-02-26T10:27:30;9.90;97.70
85509;DHT22;75919;48.506;8.946;2024-02-26T10:30:05;9.90;97.00
85509;DHT22;75919;48.506;8.946;2024-02-26T10:32:41;10.10;98.00
85509;DHT22;75919;48.506;8.946;2024-02-26T10:35:09;10.10;98.90
85509;DHT22;75919;48.506;8.946;2024-02-26T10:37:35;10.30;99.90
85509;DHT22;75919;48.506;8.946;2024-02-26T10:40:01;10.40;99.70
85509;DHT22;75919;48.506;8.946;2024-02-26T10:42:30;10.50;98.70
85509;DHT22;75919;48.506;8.946;2024-02-26T10:44:58;10.50;98.80
85509;DHT22;75919;48.506;8.946;2024-02-26T10:47:24;10.70;99.80
85509;DHT22;75919;48.506;8.946;2024-02-26T10:49:50;10.90;99.00
85509;DHT22;75919;48.506;8.946;2024-02-26T10:52:18;10.90;98.80
85509;DHT22;75919;48.506;8.946;2024-02-26T10:54:47;11.00;96.50
85509;DHT22;75919;48.506;8.946;2024-02-26T10:57:15;11.50;95.50
85509;DHT22;75919;48.506;8.946;2024-02-26T10:59:42;11.60;95.10
85509;DHT22;75919;48.506;8.946;2024-02-26T11:02:10;12.10;95.90
85509;DHT22;75919;48.506;8.946;2024-02-26T11:04:37;12.20;93.90
85509;DHT22;75919;48.506;8.946;2024-02-26T11:07:04;11.80;90.90
85509;DHT22;75919;48.506;8.946;2024-02-26T11:09:31;12.00;93.90
85509;DHT22;75919;48.506;8.946;2024-02-26T11:11:58;12.10;93.00
85509;DHT22;75919;48.506;8.946;2024-02-26T11:14:26;12.00;89.80
85509;DHT22;75919;48.506;8.946;2024-02-26T11:16:54;12.10;87.90
85509;DHT22;75919;48.506;8.946;2024-02-26T11:19:21;12.00;90.20
85509;DHT22;75919;48.506;8.946;2024-02-26T11:21:47;12.00;91.10
85509;DHT22;75919;48.506;8.946;2024-02-26T11:24:15;11.80;87.30
85509;DHT22;75919;48.506;8.946;2024-02-26T11:26:54;11.80;83.40
85509;DHT22;75919;48.506;8.946;2024-02-26T11:29:26;11.70;85.30
85509;DHT22;75919;48.506;8.946;2024-02-26T11:31:53;11.90;86.70
85509;DHT22;75919;48.506;8.946;2024-02-26T11:34:19;12.10;86.30
85509;DHT22;75919;48.506;8.946;2024-02-26T11:36:46;12.70;81.10
85509;DHT22;75919;48.506;8.946;2024-02-26T11:39:12;12.90;78.80
85509;DHT22;75919;48.506;8.946;2024-02-26T11:41:38;13.60;81.80
85509;DHT22;75919;48.506;8.946;2024-02-26T11:44:04;14.50;77.90
85509;DHT22;75919;48.506;8.946;2024-02-26T11:46:42;13.70;70.10
85509;DHT22;75919;48.506;8.946;2024-02-26T11:51:55;13.10;75.40
85509;DHT22;75919;48.506;8.946;2024-02-26T12:00:20;12.20;76.40
85509;DHT22;75919;48.506;8.946;2024-02-26T12:02:52;12.30;83.10
85509;DHT22;75919;48.506;8.946;2024-02-26T12:05:26;12.40;81.00
85509;DHT22;75919;48.506;8.946;2024-02-26T12:08:02;12.30;79.60
85509;DHT22;75919;48.506;8.946;2024-02-26T12:10:39;12.10;78.80
85509;DHT22;75919;48.506;8.946;2024-02-26T12:13:15;12.10;76.20
85509;DHT22;75919;48.506;8.946;2024-02-26T12:15:44;12.20;78.70
85509;DHT22;75919;48.506;8.946;2024-02-26T12:18:16;12.40;79.00
85509;DHT22;75919;48.506;8.946;2024-02-26T12:20:42;12.50;83.70
85509;DHT22;75919;48.506;8.946;2024-02-26T12:23:14;12.50;84.50
85509;DHT22;75919;48.506;8.946;2024-02-26T12:25:40;12.80;84.80
85509;DHT22;75919;48.506;8.946;2024-02-26T12:28:07;12.90;81.50
85509;DHT22;75919;48.506;8.946;2024-02-26T12:30:33;12.90;74.60
85509;DHT22;75919;48.506;8.946;2024-02-26T12:32:59;12.60;75.10
85509;DHT22;75919;48.506;8.946;2024-02-26T12:35:27;12.70;77.30
85509;DHT22;75919;48.506;8.946;2024-02-26T12:37:55;12.70;81.00
85509;DHT22;75919;48.506;8.946;2024-02-26T12:40:21;12.50;77.20
85509;DHT22;75919;48.506;8.946;2024-02-26T12:42:47;12.60;76.30
85509;DHT22;75919;48.506;8.946;2024-02-26T12:45:14;12.80;81.30
85509;DHT22;75919;48.506;8.946;2024-02-26T12:47:42;12.90;80.80
85509;DHT22;75919;48.506;8.946;2024-02-26T12:50:09;12.90;81.70
85509;DHT22;75919;48.506;8.946;2024-02-26T12:52:37;12.90;83.00
85509;DHT22;75919;48.506;8.946;2024-02-26T12:55:05;13.00;85.50
85509;DHT22;75919;48.506;8.946;2024-02-26T12:57:38;13.00;80.80
85509;DHT22;75919;48.506;8.946;2024-02-26T13:00:08;12.90;79.00
85509;DHT22;75919;48.506;8.946;2024-02-26T13:02:45;13.00;80.90
85509;DHT22;75919;48.506;8.946;2024-02-26T13:05:13;13.10;79.80
85509;DHT22;75919;48.506;8.946;2024-02-26T13:07:46;13.10;80.70
85509;DHT22;75919;48.506;8.946;2024-02-26T13:10:15;13.20;81.00
85509;DHT22;75919;48.506;8.946;2024-02-26T13:12:44;13.20;78.80
85509;DHT22;75919;48.506;8.946;2024-02-26T13:15:19;13.20;78.50
85509;DHT22;75919;48.506;8.946;2024-02-26T13:17:45;13.00;75.30
85509;DHT22;75919;48.506;8.946;2024-02-26T13:20:12;13.20;77.10
85509;DHT22;75919;48.506;8.946;2024-02-26T13:22:38;13.30;77.40
85509;DHT22;75919;48.506;8.946;2024-02-26T13:25:04;13.40;79.00
85509;DHT22;75919;48.506;8.946;2024-02-26T13:27:32;13.40;79.00
85509;DHT22;75919;48.506;8.946;2024-02-26T13:30:03;13.50;77.60
85509;DHT22;75919;48.506;8.946;2024-02-26T13:32:32;13.40;78.00
85509;DHT22;75919;48.506;8.946;2024-02-26T13:35:06;13.40;77.90
85509;DHT22;75919;48.506;8.946;2024-02-26T13:37:32;13.50;81.30
85509;DHT22;75919;48.506;8.946;2024-02-26T13:39:57;13.60;80.90
85509;DHT22;75919;48.506;8.946;2024-02-26T13:42:23;13.70;78.50
85509;DHT22;75919;48.506;8.946;2024-02-26T13:44:49;13.70;79.50
85509;DHT22;75919;48.506;8.946;2024-02-26T13:47:14;13.80;78.10
85509;DHT22;75919;48.506;8.946;2024-02-26T13:49:41;13.70;81.50
85509;DHT22;75919;48.506;8.946;2024-02-26T13:52:07;13.60;77.90
85509;DHT22;75919;48.506;8.946;2024-02-26T13:54:32;13.40;78.10
85509;DHT22;75919;48.506;8.946;2024-02-26T13:56:59;13.30;80.60
85509;DHT22;75919;48.506;8.946;2024-02-26T13:59:24;13.20;81.50
85509;DHT22;75919;48.506;8.946;2024-02-26T14:01:50;13.20;81.90
85509;DHT22;75919;48.506;8.946;2024-02-26T14:04:18;13.30;81.90
85509;DHT22;75919;48.506;8.946;2024-02-26T14:06:44;13.30;79.60
85509;DHT22;75919;48.506;8.946;2024-02-26T14:09:09;13.30;76.20
85509;DHT22;75919;48.506;8.946;2024-02-26T14:11:35;13.40;80.00
85509;DHT22;75919;48.506;8.946;2024-02-26T14:14:01;13.50;77.80
85509;DHT22;75919;48.506;8.946;2024-02-26T14:16:27;13.40;79.50
85509;DHT22;75919;48.506;8.946;2024-02-26T14:18:53;13.30;82.70
85509;DHT22;75919;48.506;8.946;2024-02-26T14:21:18;13.10;77.90
85509;DHT22;75919;48.506;8.946;2024-02-26T14:23:46;12.90;79.70
85509;DHT22;75919;48.506;8.946;2024-02-26T14:26:11;12.80;80.00
85509;DHT22;75919;48.506;8.946;2024-02-26T14:28:37;12.60;81.70
85509;DHT22;75919;48.506;8.946;2024-02-26T14:31:05;12.50;85.90
85509;DHT22;75919;48.506;8.946;2024-02-26T14:33:31;12.50;85.90
85509;DHT22;75919;48.506;8.946;2024-02-26T14:35:56;12.60;88.40
85509;DHT22;75919;48.506;8.946;2024-02-26T14:38:22;12.70;85.80
85509;DHT22;75919;48.506;8.946;2024-02-26T14:40:49;12.80;84.40
85509;DHT22;75919;48.506;8.946;2024-02-26T14:43:14;12.80;83.80
85509;DHT22;75919;48.506;8.946;2024-02-26T14:45:40;12.70;83.60
85509;DHT22;75919;48.506;8.946;2024-02-26T14:48:06;12.60;84.00
85509;DHT22;75919;48.506;8.946;2024-02-26T14:50:35;12.50;82.10
85509;DHT22;75919;48.506;8.946;2024-02-26T14:53:01;12.50;81.80
85509;DHT22;75919;48.506;8.946;2024-02-26T14:55:27;12.50;84.70
85509;DHT22;75919;48.506;8.946;2024-02-26T14:57:53;12.50;86.50
85509;DHT22;75919;48.506;8.946;2024-02-26T15:00:19;12.50;86.90
85509;DHT22;75919;48.506;8.946;2024-02-26T15:02:45;12.50;82.60
85509;DHT22;75919;48.506;8.946;2024-02-26T15:05:11;12.50;82.60
85509;DHT22;75919;48.506;8.946;2024-02-26T15:07:37;12.40;82.00
85509;DHT22;75919;48.506;8.946;2024-02-26T15:10:06;12.40;83.20
85509;DHT22;75919;48.506;8.946;2024-02-26T15:12:32;12.30;80.10
85509;DHT22;75919;48.506;8.946;2024-02-26T15:14:58;12.20;75.00
85509;DHT22;75919;48.506;8.946;2024-02-26T15:17:26;12.20;79.10
85509;DHT22;75919;48.506;8.946;2024-02-26T15:19:53;12.10;75.10
85509;DHT22;75919;48.506;8.946;2024-02-26T15:22:19;12.10;74.10
85509;DHT22;75919;48.506;8.946;2024-02-26T15:24:44;12.10;72.10
85509;DHT22;75919;48.506;8.946;2024-02-26T15:27:12;12.00;75.30
85509;DHT22;75919;48.506;8.946;2024-02-26T15:29:38;11.90;77.30
85509;DHT22;75919;48.506;8.946;2024-02-26T15:32:05;11.90;80.00
85509;DHT22;75919;48.506;8.946;2024-02-26T15:34:30;11.80;79.30
85509;DHT22;75919;48.506;8.946;2024-02-26T15:36:56;11.80;78.70
85509;DHT22;75919;48.506;8.946;2024-02-26T15:39:22;11.80;74.90
85509;DHT22;75919;48.506;8.946;2024-02-26T15:41:47;11.90;71.40
85509;DHT22;75919;48.506;8.946;2024-02-26T15:44:13;12.00;68.40
85509;DHT22;75919;48.506;8.946;2024-02-26T15:46:41;11.90;70.30
85509;DHT22;75919;48.506;8.946;2024-02-26T15:49:07;11.80;70.30
85509;DHT22;75919;48.506;8.946;2024-02-26T15:51:33;11.70;72.90
85509;DHT22;75919;48.506;8.946;2024-02-26T15:53:59;11.50;75.70
85509;DHT22;75919;48.506;8.946;2024-02-26T15:56:25;11.40;79.00
85509;DHT22;75919;48.506;8.946;2024-02-26T15:58:52;11.40;80.40
85509;DHT22;75919;48.506;8.946;2024-02-26T16:01:18;11.30;82.80
85509;DHT22;75919;48.506;8.946;2024-02-26T16:03:44;11.20;84.50
85509;DHT22;75919;48.506;8.946;2024-02-26T16:06:25;11.20;79.70
85509;DHT22;75919;48.506;8.946;2024-02-26T16:08:53;11.30;73.90
85509;DHT22;75919;48.506;8.946;2024-02-26T16:11:19;11.40;73.00
85509;DHT22;75919;48.506;8.946;2024-02-26T16:13:44;11.30;75.40
85509;DHT22;75919;48.506;8.946;2024-02-26T16:16:16;11.20;75.50
85509;DHT22;75919;48.506;8.946;2024-02-26T16:18:44;11.20;74.40
85509;DHT22;75919;48.506;8.946;2024-02-26T16:21:10;11.30;72.00
85509;DHT22;75919;48.506;8.946;2024-02-26T16:23:36;11.20;75.50
85509;DHT22;75919;48.506;8.946;2024-02-26T16:26:03;11.00;78.40
85509;DHT22;75919;48.506;8.946;2024-02-26T16:28:29;10.90;78.90
85509;DHT22;75919;48.506;8.946;2024-02-26T16:30:55;10.80;81.20
85509;DHT22;75919;48.506;8.946;2024-02-26T16:33:21;10.80;81.60
85509;DHT22;75919;48.506;8.946;2024-02-26T16:35:49;10.70;83.30
85509;DHT22;75919;48.506;8.946;2024-02-26T16:38:19;10.70;83.10
85509;DHT22;75919;48.506;8.946;2024-02-26T16:40:45;10.60;82.90
85509;DHT22;75919;48.506;8.946;2024-02-26T16:43:10;10.60;84.10
85509;DHT22;75919;48.506;8.946;2024-02-26T16:45:36;10.40;86.60
85509;DHT22;75919;48.506;8.946;2024-02-26T16:48:02;10.40;86.00
85509;DHT22;75919;48.506;8.946;2024-02-26T16:50:28;10.40;87.00
85509;DHT22;75919;48.506;8.946;2024-02-26T16:52:54;10.30;89.20
85509;DHT22;75919;48.506;8.946;2024-02-26T16:55:21;10.20;89.10
85509;DHT22;75919;48.506;8.946;2024-02-26T16:57:46;10.20;90.00
85509;DHT22;75919;48.506;8.946;2024-02-26T17:00:12;10.10;91.40
85509;DHT22;75919;48.506;8.946;2024-02-26T17:02:40;10.00;92.10
85509;DHT22;75919;48.506;8.946;2024-02-26T17:05:06;10.00;92.50
85509;DHT22;75919;48.506;8.946;2024-02-26T17:07:32;10.00;92.00
85509;DHT22;75919;48.506;8.946;2024-02-26T17:09:58;10.00;91.90
85509;DHT22;75919;48.506;8.946;2024-02-26T17:12:24;10.00;92.50
85509;DHT22;75919;48.506;8.946;2024-02-26T17:14:49;9.90;92.80
85509;DHT22;75919;48.506;8.946;2024-02-26T17:17:16;9.90;93.50
85509;DHT22;75919;48.506;8.946;2024-02-26T17:19:42;9.80;94.90
85509;DHT22;75919;48.506;8.946;2024-02-26T17:22:07;9.80;94.90
85509;DHT22;75919;48.506;8.946;2024-02-26T17:24:35;9.70;95.70
85509;DHT22;75919;48.506;8.946;2024-02-26T17:27:01;9.80;95.10
85509;DHT22;75919;48.506;8.946;2024-02-26T17:29:27;9.80;95.70
85509;DHT22;75919;48.506;8.946;2024-02-26T17:31:53;9.70;96.20
85509;DHT22;75919;48.506;8.946;2024-02-26T17:34:18;9.80;96.30
85509;DHT22;75919;48.506;8.946;2024-02-26T17:36:44;9.70;96.60
85509;DHT22;75919;48.506;8.946;2024-02-26T17:39:10;9.70;96.70
85509;DHT22;75919;48.506;8.946;2024-02-26T17:41:36;9.70;97.30
85509;DHT22;75919;48.506;8.946;2024-02-26T17:44:02;9.80;96.90
85509;DHT22;75919;48.506;8.946;2024-02-26T17:46:28;9.70;97.90
85509;DHT22;75919;48.506;8.946;2024-02-26T17:48:54;9.70;97.60
85509;DHT22;75919;48.506;8.946;2024-02-26T17:51:19;9.70;98.00
85509;DHT22;75919;48.506;8.946;2024-02-26T17:53:45;9.60;98.30
85509;DHT22;75919;48.506;8.946;2024-02-26T17:56:10;9.60;98.20
85509;DHT22;75919;48.506;8.946;2024-02-26T17:58:37;9.60;98.20
85509;DHT22;75919;48.506;8.946;2024-02-26T18:01:10;9.50;98.70
85509;DHT22;75919;48.506;8.946;2024-02-26T18:03:36;9.60;98.40
85509;DHT22;75919;48.506;8.946;2024-02-26T18:06:02;9.50;99.40
85509;DHT22;75919;48.506;8.946;2024-02-26T18:08:27;9.40;99.60
85509;DHT22;75919;48.506;8.946;2024-02-26T18:10:53;9.40;99.90
85509;DHT22;75919;48.506;8.946;2024-02-26T18:13:19;9.30;99.90
85509;DHT22;75919;48.506;8.946;2024-02-26T18:15:44;9.30;99.90
85509;DHT22;75919;48.506;8.946;2024-02-26T18:18:10;9.20;99.90
85509;DHT22;75919;48.506;8.946;2024-02-26T18:20:38;9.20;99.90
85509;DHT22;75919;48.506;8.946;2024-02-26T18:23:03;9.20;99.90
85509;DHT22;75919;48.506;8.946;2024-02-26T18:25:29;9.10;99.90
85509;DHT22;75919;48.506;8.946;2024-02-26T18:27:56;9.10;99.90
85509;DHT22;75919;48.506;8.946;2024-02-26T18:30:22;9.20;99.90
85509;DHT22;75919;48.506;8.946;2024-02-26T18:32:47;9.30;99.90
85509;DHT22;75919;48.506;8.946;2024-02-26T18:35:13;9.30;99.90
85509;DHT22;75919;48.506;8.946;2024-02-26T18:37:39;9.20;99.90
85509;DHT22;75919;48.506;8.946;2024-02-26T18:40:05;9.20;99.90
85509;DHT22;75919;48.506;8.946;2024-02-26T18:42:33;9.10;99.90
85509;DHT22;75919;48.506;8.946;2024-02-26T18:45:01;9.10;99.90
85509;DHT22;75919;48.506;8.946;2024-02-26T18:47:26;9.10;99.90
85509;DHT22;75919;48.506;8.946;2024-02-26T18:49:52;9.10;99.90
85509;DHT22;75919;48.506;8.946;2024-02-26T18:52:18;9.10;99.90
85509;DHT22;75919;48.506;8.946;2024-02-26T18:54:44;9.10;99.90
85509;DHT22;75919;48.506;8.946;2024-02-26T18:57:11;9.10;99.90
85509;DHT22;75919;48.506;8.946;2024-02-26T18:59:36;9.10;99.90
85509;DHT22;75919;48.506;8.946;2024-02-26T19:02:02;9.10;99.90
85509;DHT22;75919;48.506;8.946;2024-02-26T19:04:29;9.10;99.90
85509;DHT22;75919;48.506;8.946;2024-02-26T19:06:55;9.00;99.90
85509;DHT22;75919;48.506;8.946;2024-02-26T19:09:21;9.00;99.90
85509;DHT22;75919;48.506;8.946;2024-02-26T19:11:47;8.90;99.90
85509;DHT22;75919;48.506;8.946;2024-02-26T19:14:18;8.90;99.90
85509;DHT22;75919;48.506;8.946;2024-02-26T19:16:44;8.90;99.90
85509;DHT22;75919;48.506;8.946;2024-02-26T19:19:10;8.90;99.90
85509;DHT22;75919;48.506;8.946;2024-02-26T19:21:36;8.90;99.90
85509;DHT22;75919;48.506;8.946;2024-02-26T19:24:02;8.90;99.90
85509;DHT22;75919;48.506;8.946;2024-02-26T19:26:35;9.00;99.90
85509;DHT22;75919;48.506;8.946;2024-02-26T19:29:01;9.00;99.20
85509;DHT22;75919;48.506;8.946;2024-02-26T19:31:30;9.00;98.90
85509;DHT22;75919;48.506;8.946;2024-02-26T19:33:59;9.00;98.60
85509;DHT22;75919;48.506;8.946;2024-02-26T19:36:26;9.00;99.10
85509;DHT22;75919;48.506;8.946;2024-02-26T19:38:52;9.00;98.10
85509;DHT22;75919;48.506;8.946;2024-02-26T19:41:17;9.10;97.20
85509;DHT22;75919;48.506;8.946;2024-02-26T19:43:43;9.00;97.90
85509;DHT22;75919;48.506;8.946;2024-02-26T19:46:14;9.00;97.50
85509;DHT22;75919;48.506;8.946;2024-02-26T19:48:40;8.90;98.70
85509;DHT22;75919;48.506;8.946;2024-02-26T19:51:06;8.90;97.50
85509;DHT22;75919;48.506;8.946;2024-02-26T19:53:33;9.00;97.20
85509;DHT22;75919;48.506;8.946;2024-02-26T19:55:59;8.90;96.50
85509;DHT22;75919;48.506;8.946;2024-02-26T19:58:26;8.90;97.10
85509;DHT22;75919;48.506;8.946;2024-02-26T20:00:52;8.90;96.40
85509;DHT22;75919;48.506;8.946;2024-02-26T20:03:18;8.90;97.20
85509;DHT22;75919;48.506;8.946;2024-02-26T20:05:44;8.90;96.00
85509;DHT22;75919;48.506;8.946;2024-02-26T20:08:09;8.90;96.80
85509;DHT22;75919;48.506;8.946;2024-02-26T20:10:35;8.90;96.20
85509;DHT22;75919;48.506;8.946;2024-02-26T20:13:01;9.00;96.20
85509;DHT22;75919;48.506;8.946;2024-02-26T20:15:27;8.90;96.20
85509;DHT22;75919;48.506;8.946;2024-02-26T20:17:52;9.00;94.50
85509;DHT22;75919;48.506;8.946;2024-02-26T20:20:18;9.00;94.90
85509;DHT22;75919;48.506;8.946;2024-02-26T20:22:44;8.80;96.80
85509;DHT22;75919;48.506;8.946;2024-02-26T20:25:12;8.70;98.50
85509;DHT22;75919;48.506;8.946;2024-02-26T20:27:38;8.60;99.50
85509;DHT22;75919;48.506;8.946;2024-02-26T20:30:04;8.60;98.50
